createdAt,value
2018-04-10T00:02:04.879Z,44.30
2018-04-10T00:04:32.402Z,44.20
2018-04-10T00:07:00.165Z,44.30
2018-04-10T00:09:27.935Z,44.20
2018-04-10T00:11:55.895Z,44.10
2018-04-10T00:14:23.650Z,44.20
2018-04-10T00:16:51.234Z,44.20
2018-04-10T00:19:19.680Z,43.90
2018-04-10T00:21:47.203Z,44.20
2018-04-10T00:24:14.705Z,44.20
2018-04-10T00:26:43.184Z,44.20
2018-04-10T00:29:10.704Z,44.10
2018-04-10T00:31:38.278Z,44.50
2018-04-10T00:34:08.524Z,44.40
2018-04-10T00:36:36.030Z,44.40
2018-04-10T00:39:03.562Z,44.40
2018-04-10T00:41:31.095Z,44.50
2018-04-10T00:43:59.570Z,44.30
2018-04-10T00:46:27.086Z,44.40
2018-04-10T00:48:54.584Z,44.40
2018-04-10T00:51:22.103Z,44.40
2018-04-10T00:53:49.594Z,44.40
2018-04-10T00:56:17.147Z,44.40
2018-04-10T00:58:44.663Z,44.40
2018-04-10T01:01:13.126Z,44.40
2018-04-10T01:03:40.656Z,44.40
2018-04-10T01:06:08.158Z,44.40
2018-04-10T01:08:38.135Z,44.40
2018-04-10T01:11:05.664Z,44.40
2018-04-10T01:13:33.942Z,44.40
2018-04-10T01:16:01.439Z,44.40
2018-04-10T01:18:31.008Z,44.40
2018-04-10T01:21:00.509Z,44.40
2018-04-10T01:23:28.015Z,44.30
2018-04-10T01:25:55.535Z,44.40
2018-04-10T01:28:23.058Z,44.30
2018-04-10T01:30:51.348Z,44.30
2018-04-10T01:33:18.856Z,44.30
2018-04-10T01:35:46.347Z,44.20
2018-04-10T01:38:14.647Z,44.30
2018-04-10T01:40:42.150Z,44.30
2018-04-10T01:43:09.672Z,44.20
2018-04-10T01:45:38.119Z,44.20
2018-04-10T01:48:06.405Z,44.20
2018-04-10T01:50:34.682Z,44.20
2018-04-10T01:53:02.950Z,44.20
2018-04-10T01:55:31.250Z,44.20
2018-04-10T01:57:58.760Z,44.20
2018-04-10T02:00:27.788Z,44.20
2018-04-10T02:02:55.293Z,44.20
2018-04-10T02:05:22.861Z,44.10
2018-04-10T02:07:50.376Z,44.00
2018-04-10T02:10:17.871Z,44.10
2018-04-10T02:18:44.770Z,44.10
2018-04-10T02:21:12.288Z,44.10
2018-04-10T02:23:39.790Z,44.20
2018-04-10T02:26:08.070Z,44.20
2018-04-10T02:28:36.354Z,44.20
2018-04-10T02:31:04.632Z,44.20
2018-04-10T02:33:32.151Z,44.20
2018-04-10T02:36:00.628Z,44.20
2018-04-10T02:38:28.138Z,44.20
2018-04-10T02:40:55.663Z,44.20
2018-04-10T02:43:23.161Z,44.20
2018-04-10T02:45:50.685Z,44.20
2018-04-10T02:48:18.947Z,44.20
2018-04-10T02:50:46.466Z,44.20
2018-04-10T02:53:20.196Z,44.20
2018-04-10T02:55:47.711Z,44.20
2018-04-10T02:58:15.213Z,44.20
2018-04-10T03:00:42.715Z,44.20
2018-04-10T03:03:10.242Z,44.30
2018-04-10T03:05:38.507Z,44.20
2018-04-10T03:08:06.026Z,44.20
2018-04-10T03:10:33.515Z,44.20
2018-04-10T03:13:01.042Z,44.20
2018-04-10T03:15:29.494Z,44.20
2018-04-10T03:17:56.991Z,44.20
2018-04-10T03:20:24.514Z,44.20
2018-04-10T03:22:52.014Z,44.20
2018-04-10T03:25:19.531Z,44.20
2018-04-10T03:27:47.044Z,44.20
2018-04-10T03:30:14.567Z,44.10
2018-04-10T03:32:42.055Z,44.30
2018-04-10T03:35:09.552Z,44.10
2018-04-10T03:37:37.066Z,44.10
2018-04-10T03:40:04.572Z,44.10
2018-04-10T03:42:32.115Z,44.10
2018-04-10T03:45:00.381Z,44.10
2018-04-10T03:47:28.663Z,44.20
2018-04-10T03:49:56.154Z,44.10
2018-04-10T03:52:23.647Z,44.10
2018-04-10T03:54:52.675Z,44.20
2018-04-10T03:57:20.172Z,44.20
2018-04-10T03:59:47.684Z,44.10
2018-04-10T04:02:15.946Z,44.20
2018-04-10T04:04:44.227Z,44.20
2018-04-10T04:07:12.506Z,44.20
2018-04-10T04:09:40.791Z,44.20
2018-04-10T04:12:10.282Z,44.20
2018-04-10T04:14:38.557Z,44.20
2018-04-10T04:17:18.808Z,44.20
2018-04-10T04:19:58.879Z,44.20
2018-04-10T04:22:38.472Z,44.20
2018-04-10T04:25:05.977Z,44.20
2018-04-10T04:27:33.503Z,44.20
2018-04-10T04:30:00.986Z,44.10
2018-04-10T04:32:28.478Z,44.20
2018-04-10T04:34:56.006Z,44.10
2018-04-10T04:37:23.495Z,44.20
2018-04-10T04:39:51.786Z,44.20
2018-04-10T04:42:19.281Z,44.10
2018-04-10T04:44:47.575Z,44.10
2018-04-10T04:47:15.071Z,44.10
2018-04-10T04:49:42.571Z,44.00
2018-04-10T04:52:10.855Z,43.90
2018-04-10T04:54:38.342Z,43.90
2018-04-10T04:57:05.887Z,44.00
2018-04-10T04:59:33.419Z,44.00
2018-04-10T05:02:01.717Z,44.00
2018-04-10T05:04:29.222Z,44.00
2018-04-10T05:06:56.714Z,44.00
2018-04-10T05:09:24.227Z,44.00
2018-04-10T05:11:52.679Z,44.00
2018-04-10T05:14:20.208Z,44.00
2018-04-10T05:16:47.714Z,44.00
2018-04-10T05:19:15.258Z,44.00
2018-04-10T05:21:42.756Z,44.00
2018-04-10T05:24:11.048Z,44.00
2018-04-10T05:26:38.567Z,44.00
2018-04-10T05:29:06.062Z,44.00
2018-04-10T05:31:33.598Z,44.00
2018-04-10T05:34:01.859Z,44.00
2018-04-10T05:36:29.362Z,44.00
2018-04-10T05:38:56.898Z,44.00
2018-04-10T05:41:25.160Z,44.40
2018-04-10T05:43:52.697Z,44.40
2018-04-10T05:46:21.222Z,45.00
2018-04-10T05:48:48.722Z,44.30
2018-04-10T05:51:16.234Z,44.40
2018-04-10T05:53:43.763Z,44.50
2018-04-10T05:56:12.291Z,44.50
2018-04-10T05:58:40.099Z,44.50
2018-04-10T06:01:08.845Z,44.60
2018-04-10T06:03:36.608Z,44.60
2018-04-10T06:06:04.646Z,44.50
2018-04-10T06:08:33.055Z,44.50
2018-04-10T06:11:01.039Z,44.50
2018-04-10T06:13:28.785Z,44.50
2018-04-10T06:15:56.598Z,44.50
2018-04-10T06:18:26.204Z,44.50
2018-04-10T06:20:54.840Z,44.50
2018-04-10T06:23:23.441Z,44.50
2018-04-10T06:25:52.021Z,44.40
2018-04-10T06:28:19.665Z,45.10
2018-04-10T06:30:48.555Z,44.40
2018-04-10T06:33:16.469Z,45.00
2018-04-10T06:35:44.238Z,45.00
2018-04-10T06:38:11.946Z,45.50
2018-04-10T06:40:39.816Z,44.80
2018-04-10T06:43:07.576Z,45.00
2018-04-10T06:45:36.395Z,45.00
2018-04-10T06:48:04.170Z,44.90
2018-04-10T06:50:33.473Z,44.90
2018-04-10T06:53:02.028Z,44.90
2018-04-10T06:55:30.587Z,44.90
2018-04-10T06:57:58.455Z,44.80
2018-04-10T07:00:26.023Z,44.80
2018-04-10T07:02:53.574Z,44.80
2018-04-10T07:05:21.089Z,44.70
2018-04-10T07:07:49.384Z,44.70
2018-04-10T07:10:16.883Z,44.70
2018-04-10T07:12:44.412Z,44.60
2018-04-10T07:15:11.951Z,44.60
2018-04-10T07:17:40.226Z,44.70
2018-04-10T07:20:07.788Z,44.60
2018-04-10T07:22:36.063Z,44.60
2018-04-10T07:25:03.618Z,44.50
2018-04-10T07:27:31.155Z,44.50
2018-04-10T07:29:58.661Z,44.50
2018-04-10T07:32:27.088Z,44.50
2018-04-10T07:34:54.589Z,44.50
2018-04-10T07:37:22.110Z,44.10
2018-04-10T07:39:50.411Z,44.50
2018-04-10T07:42:17.937Z,44.50
2018-04-10T07:44:45.457Z,44.40
2018-04-10T07:47:12.962Z,44.50
2018-04-10T07:49:41.264Z,44.40
2018-04-10T07:52:08.771Z,44.40
2018-04-10T07:54:39.767Z,44.40
2018-04-10T07:57:07.295Z,44.40
2018-04-10T07:59:35.590Z,44.40
2018-04-10T08:02:03.102Z,44.40
2018-04-10T08:04:30.633Z,44.40
2018-04-10T08:06:58.177Z,44.40
2018-04-10T08:09:25.729Z,44.40
2018-04-10T08:11:53.999Z,44.40
2018-04-10T08:14:21.502Z,44.40
2018-04-10T08:16:49.806Z,44.40
2018-04-10T08:19:18.087Z,44.40
2018-04-10T08:21:46.360Z,44.40
2018-04-10T08:24:14.654Z,44.30
2018-04-10T08:26:42.191Z,44.30
2018-04-10T08:29:12.482Z,44.40
2018-04-10T08:31:41.499Z,44.30
2018-04-10T08:34:10.750Z,44.30
2018-04-10T08:36:38.243Z,44.40
2018-04-10T08:39:06.664Z,44.30
2018-04-10T08:41:34.187Z,44.30
2018-04-10T08:44:02.467Z,44.40
2018-04-10T08:46:30.763Z,44.30
2018-04-10T08:48:58.264Z,44.30
2018-04-10T08:51:26.752Z,44.30
2018-04-10T08:53:55.027Z,44.30
2018-04-10T08:56:22.543Z,44.40
2018-04-10T08:58:52.020Z,44.20
2018-04-10T09:01:20.287Z,44.30
2018-04-10T09:03:48.574Z,44.30
2018-04-10T09:06:16.842Z,44.20
2018-04-10T09:08:45.135Z,44.30
2018-04-10T09:11:12.630Z,44.20
2018-04-10T09:13:40.180Z,44.30
2018-04-10T09:16:07.678Z,44.30
2018-04-10T09:18:35.966Z,44.30
2018-04-10T09:21:04.263Z,44.20
2018-04-10T09:23:31.772Z,44.20
2018-04-10T09:26:00.086Z,44.20
2018-04-10T09:28:27.599Z,44.20
2018-04-10T09:30:55.127Z,44.20
2018-04-10T09:33:22.626Z,44.20
2018-04-10T09:35:50.947Z,44.20
2018-04-10T09:38:19.433Z,44.20
2018-04-10T09:40:46.935Z,44.20
2018-04-10T09:43:14.467Z,44.20
2018-04-10T09:45:41.968Z,44.20
2018-04-10T09:48:10.247Z,44.80
2018-04-10T09:50:38.511Z,44.20
2018-04-10T09:53:06.821Z,44.20
2018-04-10T09:55:34.319Z,44.20
2018-04-10T09:58:01.811Z,44.10
2018-04-10T10:00:35.816Z,44.20
2018-04-10T10:03:10.789Z,44.20
2018-04-10T10:05:38.309Z,44.20
2018-04-10T10:08:06.598Z,44.20
2018-04-10T10:10:34.134Z,44.20
2018-04-10T10:13:02.397Z,44.20
2018-04-10T10:15:29.900Z,44.20
2018-04-10T10:17:57.430Z,44.10
2018-04-10T10:20:25.687Z,44.20
2018-04-10T10:22:53.236Z,44.20
2018-04-10T10:25:20.756Z,44.10
2018-04-10T10:27:48.280Z,44.10
2018-04-10T10:30:16.561Z,44.20
2018-04-10T10:32:44.095Z,44.20
2018-04-10T10:35:11.596Z,44.10
2018-04-10T10:37:39.095Z,44.50
2018-04-10T10:40:07.402Z,44.10
2018-04-10T10:42:35.735Z,44.10
2018-04-10T10:45:03.243Z,44.10
2018-04-10T10:47:30.742Z,44.10
2018-04-10T10:49:58.268Z,44.10
2018-04-10T10:52:25.768Z,44.10
2018-04-10T10:54:55.242Z,44.10
2018-04-10T10:57:22.734Z,44.10
2018-04-10T10:59:50.257Z,44.10
2018-04-10T11:02:17.757Z,44.10
2018-04-10T11:04:45.251Z,44.10
2018-04-10T11:07:12.774Z,44.10
2018-04-10T11:09:41.231Z,44.10
2018-04-10T11:12:08.768Z,44.00
2018-04-10T11:14:36.259Z,44.10
2018-04-10T11:17:04.546Z,44.00
2018-04-10T11:19:32.044Z,44.10
2018-04-10T11:21:59.562Z,44.10
2018-04-10T11:24:27.057Z,44.10
2018-04-10T11:26:54.575Z,44.10
2018-04-10T11:29:22.083Z,44.10
2018-04-10T11:31:49.581Z,44.10
2018-04-10T11:34:17.097Z,44.10
2018-04-10T11:36:44.598Z,44.10
2018-04-10T11:39:12.131Z,44.10
2018-04-10T11:41:39.639Z,44.00
2018-04-10T11:44:07.918Z,44.10
2018-04-10T11:46:36.367Z,44.10
2018-04-10T11:49:03.897Z,44.10
2018-04-10T11:51:31.392Z,44.10
2018-04-10T11:53:59.666Z,44.10
2018-04-10T11:56:27.927Z,44.10
2018-04-10T11:58:55.415Z,44.10
2018-04-10T12:01:23.721Z,44.20
2018-04-10T12:03:51.227Z,44.10
2018-04-10T12:06:18.757Z,44.10
2018-04-10T12:08:46.254Z,44.10
2018-04-10T12:11:14.543Z,44.10
2018-04-10T12:13:42.056Z,44.10
2018-04-10T12:16:09.602Z,44.10
2018-04-10T12:18:37.101Z,44.10
2018-04-10T12:21:05.391Z,44.10
2018-04-10T12:23:32.903Z,44.20
2018-04-10T12:26:01.213Z,44.10
2018-04-10T12:28:29.482Z,44.10
2018-04-10T12:30:57.742Z,44.10
2018-04-10T12:33:26.059Z,44.10
2018-04-10T12:35:53.572Z,44.10
2018-04-10T12:38:21.092Z,44.10
2018-04-10T12:40:48.598Z,44.10
2018-04-10T12:43:16.895Z,44.10
2018-04-10T12:45:44.419Z,44.10
2018-04-10T12:48:11.956Z,44.10
2018-04-10T12:50:39.467Z,43.90
2018-04-10T12:53:06.988Z,44.10
2018-04-10T12:55:34.491Z,44.10
2018-04-10T12:58:01.998Z,44.10
2018-04-10T13:00:32.954Z,44.10
2018-04-10T13:03:01.219Z,44.10
2018-04-10T13:05:28.743Z,44.10
2018-04-10T13:07:56.249Z,44.10
2018-04-10T13:10:24.532Z,44.10
2018-04-10T13:12:52.811Z,44.10
2018-04-10T13:15:20.328Z,44.10
2018-04-10T13:17:48.595Z,44.10
2018-04-10T13:20:16.117Z,44.10
2018-04-10T13:22:43.627Z,44.10
2018-04-10T13:25:11.119Z,44.10
2018-04-10T13:27:38.652Z,44.10
2018-04-10T13:30:06.918Z,44.10
2018-04-10T13:32:34.501Z,44.10
2018-04-10T13:35:01.974Z,44.70
2018-04-10T13:37:29.494Z,44.10
2018-04-10T13:39:57.759Z,44.10
2018-04-10T13:42:26.055Z,44.10
2018-04-10T13:44:54.332Z,44.10
2018-04-10T13:47:22.607Z,44.10
2018-04-10T13:49:50.887Z,44.10
2018-04-10T13:52:20.104Z,44.10
2018-04-10T13:54:47.627Z,44.10
2018-04-10T13:57:15.905Z,44.10
2018-04-10T13:59:44.187Z,44.10
2018-04-10T14:02:13.385Z,44.10
2018-04-10T14:04:41.666Z,44.10
2018-04-10T14:07:10.898Z,44.00
2018-04-10T14:09:38.387Z,44.00
2018-04-10T14:12:05.903Z,44.00
2018-04-10T14:14:33.399Z,44.10
2018-04-10T14:17:00.931Z,44.10
2018-04-10T14:19:28.442Z,44.10
2018-04-10T14:21:55.969Z,44.10
2018-04-10T14:24:25.199Z,44.10
2018-04-10T14:26:53.482Z,44.10
2018-04-10T14:29:20.988Z,44.10
2018-04-10T14:31:48.486Z,44.00
2018-04-10T14:34:16.775Z,44.10
2018-04-10T14:36:44.269Z,44.10
2018-04-10T14:39:11.786Z,44.00
2018-04-10T14:41:39.312Z,44.10
2018-04-10T14:44:08.341Z,44.10
2018-04-10T14:46:35.843Z,44.10
2018-04-10T14:49:03.357Z,44.10
2018-04-10T14:51:30.848Z,44.10
2018-04-10T14:53:59.335Z,44.10
2018-04-10T14:56:26.843Z,44.10
2018-04-10T14:58:55.103Z,44.10
2018-04-10T15:01:23.387Z,44.10
2018-04-10T15:03:51.665Z,44.10
2018-04-10T15:06:19.942Z,44.10
2018-04-10T15:08:47.499Z,44.10
2018-04-10T15:11:15.788Z,44.10
2018-04-10T15:13:44.239Z,44.10
2018-04-10T15:16:12.523Z,44.10
2018-04-10T15:18:40.811Z,44.10
2018-04-10T15:21:08.345Z,44.10
2018-04-10T15:23:36.611Z,44.10
2018-04-10T15:26:04.115Z,44.80
2018-04-10T15:28:31.630Z,44.10
2018-04-10T15:30:59.898Z,44.10
2018-04-10T15:33:29.359Z,44.10
2018-04-10T15:35:56.855Z,44.10
2018-04-10T15:38:25.900Z,44.10
2018-04-10T15:40:53.389Z,44.10
2018-04-10T15:43:20.939Z,44.10
2018-04-10T15:45:48.443Z,44.10
2018-04-10T15:48:18.692Z,44.10
2018-04-10T15:50:46.206Z,44.10
2018-04-10T15:53:13.705Z,44.10
2018-04-10T15:55:43.209Z,44.80
2018-04-10T15:58:10.703Z,44.10
2018-04-10T16:00:38.232Z,44.10
2018-04-10T16:03:05.745Z,44.10
2018-04-10T16:05:34.026Z,44.10
2018-04-10T16:08:03.253Z,44.10
2018-04-10T16:10:30.784Z,44.10
2018-04-10T16:12:59.975Z,44.10
2018-04-10T16:15:29.241Z,44.10
2018-04-10T16:17:56.706Z,44.10
2018-04-10T16:20:24.195Z,44.10
2018-04-10T16:22:52.478Z,44.10
2018-04-10T16:25:19.977Z,44.10
2018-04-10T16:27:47.495Z,44.10
2018-04-10T16:30:14.998Z,44.10
2018-04-10T16:32:44.475Z,44.10
2018-04-10T16:35:11.970Z,44.10
2018-04-10T16:37:39.519Z,44.10
2018-04-10T16:40:07.834Z,44.10
2018-04-10T16:42:35.327Z,44.10
2018-04-10T16:45:02.836Z,44.10
2018-04-10T16:47:31.110Z,44.10
2018-04-10T16:49:59.395Z,44.20
2018-04-10T16:52:27.659Z,44.10
2018-04-10T16:54:55.942Z,44.10
2018-04-10T16:57:24.235Z,44.10
2018-04-10T16:59:51.754Z,44.10
2018-04-10T17:02:20.193Z,44.10
2018-04-10T17:04:47.713Z,44.10
2018-04-10T17:07:15.982Z,44.10
2018-04-10T17:09:44.290Z,44.10
2018-04-10T17:12:11.789Z,44.10
2018-04-10T17:14:41.024Z,44.10
2018-04-10T17:17:08.545Z,44.10
2018-04-10T17:19:36.041Z,44.10
2018-04-10T17:22:03.583Z,44.10
2018-04-10T17:24:31.843Z,44.10
2018-04-10T17:26:59.363Z,44.00
2018-04-10T17:29:26.875Z,44.10
2018-04-10T17:31:55.167Z,44.10
2018-04-10T17:34:22.673Z,44.00
2018-04-10T17:36:50.191Z,44.10
2018-04-10T17:39:17.697Z,44.10
2018-04-10T17:41:45.201Z,44.10
2018-04-10T17:44:12.739Z,44.10
2018-04-10T17:46:41.974Z,44.10
2018-04-10T17:49:09.507Z,44.10
2018-04-10T17:51:37.008Z,44.10
2018-04-10T17:54:04.554Z,44.10
2018-04-10T17:56:32.070Z,44.10
2018-04-10T17:59:00.360Z,44.10
2018-04-10T18:01:27.863Z,44.10
2018-04-10T18:03:56.899Z,44.10
2018-04-10T18:06:24.398Z,44.10
2018-04-10T18:08:51.895Z,44.10
2018-04-10T18:11:20.191Z,44.80
2018-04-10T18:13:47.688Z,44.10
2018-04-10T18:16:16.011Z,44.10
2018-04-10T18:18:44.278Z,44.10
2018-04-10T18:21:12.595Z,44.10
2018-04-10T18:23:40.104Z,44.10
2018-04-10T18:26:09.355Z,44.10
2018-04-10T18:28:36.870Z,44.10
2018-04-10T18:31:05.154Z,44.10
2018-04-10T18:33:33.436Z,44.10
2018-04-10T18:36:01.012Z,44.10
2018-04-10T18:38:28.531Z,44.10
2018-04-10T18:40:56.822Z,44.10
2018-04-10T18:43:24.343Z,44.10
2018-04-10T18:45:52.798Z,44.10
2018-04-10T18:48:20.318Z,44.10
2018-04-10T18:50:47.819Z,44.00
2018-04-10T18:53:15.366Z,44.10
2018-04-10T18:55:42.870Z,44.00
2018-04-10T18:58:11.850Z,44.10
2018-04-10T19:00:39.389Z,44.10
2018-04-10T19:03:09.728Z,44.30
2018-04-10T19:05:38.116Z,44.20
2018-04-10T19:08:06.401Z,44.30
2018-04-10T19:10:34.696Z,44.30
2018-04-10T19:13:02.207Z,44.30
2018-04-10T19:15:29.702Z,44.30
2018-04-10T19:17:57.222Z,44.30
2018-04-10T19:20:24.732Z,44.30
2018-04-10T19:22:52.264Z,44.50
2018-04-10T19:25:20.552Z,44.40
2018-04-10T19:27:48.066Z,44.40
2018-04-10T19:30:15.578Z,44.40
2018-04-10T19:32:43.124Z,44.40
2018-04-10T19:35:10.632Z,44.60
2018-04-10T19:37:38.165Z,44.90
2018-04-10T19:40:05.708Z,45.00
2018-04-10T19:42:33.257Z,44.90
2018-04-10T19:45:00.798Z,44.90
2018-04-10T19:47:29.050Z,45.10
2018-04-10T19:49:57.339Z,45.10
2018-04-10T19:52:25.672Z,45.10
2018-04-10T19:54:53.256Z,45.00
2018-04-10T19:57:22.822Z,45.00
2018-04-10T19:59:50.864Z,45.00
2018-04-10T20:02:18.652Z,45.00
2018-04-10T20:04:47.485Z,45.00
2018-04-10T20:07:16.206Z,45.00
2018-04-10T20:09:45.013Z,45.00
2018-04-10T20:12:12.775Z,45.00
2018-04-10T20:14:41.357Z,45.30
2018-04-10T20:17:10.246Z,45.40
2018-04-10T20:19:39.955Z,45.10
2018-04-10T20:22:07.703Z,45.10
2018-04-10T20:24:35.488Z,45.20
2018-04-10T20:27:03.348Z,45.10
2018-04-10T20:29:30.916Z,45.10
2018-04-10T20:31:58.574Z,45.10
2018-04-10T20:34:26.281Z,45.10
2018-04-10T20:36:53.808Z,45.10
2018-04-10T20:39:21.331Z,45.20
2018-04-10T20:41:48.836Z,45.20
2018-04-10T20:44:18.292Z,45.20
2018-04-10T20:46:45.804Z,45.20
2018-04-10T20:49:15.762Z,45.20
2018-04-10T20:51:43.292Z,45.20
2018-04-10T20:54:11.563Z,45.20
2018-04-10T20:56:39.091Z,45.00
2018-04-10T20:59:06.593Z,45.00
2018-04-10T21:01:34.894Z,45.10
2018-04-10T21:04:02.393Z,45.10
2018-04-10T21:06:29.969Z,45.10
2018-04-10T21:08:58.305Z,45.10
2018-04-10T21:11:25.848Z,45.10
2018-04-10T21:13:53.359Z,45.00
2018-04-10T21:16:20.877Z,45.10
2018-04-10T21:18:49.378Z,45.10
2018-04-10T21:21:16.886Z,45.00
2018-04-10T21:23:44.400Z,45.10
2018-04-10T21:26:13.430Z,45.10
2018-04-10T21:28:41.911Z,45.10
2018-04-10T21:31:09.410Z,45.10
2018-04-10T21:33:36.939Z,45.10
2018-04-10T21:36:04.448Z,45.10
2018-04-10T21:38:32.710Z,45.00
2018-04-10T21:41:00.233Z,45.00
2018-04-10T21:43:31.747Z,45.10
2018-04-10T21:46:00.039Z,45.10
2018-04-10T21:48:27.547Z,45.00
2018-04-10T21:50:55.996Z,45.20
2018-04-10T21:53:23.519Z,45.10
2018-04-10T21:55:51.805Z,45.10
2018-04-10T21:58:19.309Z,45.10
2018-04-10T22:00:46.858Z,45.10
2018-04-10T22:03:14.362Z,45.00
2018-04-10T22:05:42.642Z,45.20
2018-04-10T22:08:12.381Z,45.10
2018-04-10T22:10:41.170Z,45.10
2018-04-10T22:13:09.033Z,45.10
2018-04-10T22:15:36.899Z,45.20
2018-04-10T22:18:04.426Z,45.20
2018-04-10T22:20:32.703Z,45.20
2018-04-10T22:23:00.970Z,45.20
2018-04-10T22:25:29.247Z,45.10
2018-04-10T22:27:56.838Z,45.00
2018-04-10T22:30:24.749Z,45.10
2018-04-10T22:32:52.541Z,45.10
2018-04-10T22:35:21.226Z,45.10
2018-04-10T22:37:48.778Z,45.10
2018-04-10T22:40:16.319Z,45.10
2018-04-10T22:42:44.105Z,45.10
2018-04-10T22:45:11.646Z,45.00
2018-04-10T22:47:39.149Z,45.00
2018-04-10T22:50:06.651Z,45.00
2018-04-10T22:52:35.922Z,44.90
2018-04-10T22:55:03.416Z,45.00
2018-04-10T22:57:30.954Z,44.90
2018-04-10T23:00:00.180Z,45.00
2018-04-10T23:02:27.674Z,44.90
2018-04-10T23:04:55.192Z,44.90
2018-04-10T23:07:22.714Z,44.90
2018-04-10T23:09:50.268Z,44.90
2018-04-10T23:12:19.277Z,44.80
2018-04-10T23:14:48.747Z,44.80
2018-04-10T23:17:17.184Z,45.30
2018-04-10T23:19:45.459Z,44.80
2018-04-10T23:22:13.726Z,44.80
2018-04-10T23:24:41.252Z,44.80
2018-04-10T23:27:08.772Z,44.80
2018-04-10T23:29:36.305Z,44.70
2018-04-10T23:32:04.595Z,44.80
2018-04-10T23:34:32.860Z,44.70
2018-04-10T23:37:01.196Z,44.80
2018-04-10T23:39:29.661Z,44.80
2018-04-10T23:41:57.152Z,44.90
2018-04-10T23:44:24.675Z,45.00
2018-04-10T23:46:52.470Z,45.00
2018-04-10T23:49:20.023Z,45.00
2018-04-10T23:51:47.746Z,45.10
2018-04-10T23:54:15.560Z,45.10
2018-04-10T23:56:45.077Z,45.10
2018-04-10T23:59:12.785Z,45.10
